Time;durP1;ratioP1;P1;durP2;ratioP2;P2;SDS_P1;SDS_P2;PMS_P1;PMS_P2;Temp;Humidity;BMP_temperature;BMP_pressure;BME280_temperature;BME280_humidity;BME280_pressure;Samples;Min_cycle;Max_cycle;Signal;HPM_P1;HPM_P2
2022/04/24 00:00:37;;;;;;;6.65;3.78;;;;;;;8.56;62.72;100725.88;2079998;28;20149;-68
2022/04/24 00:01:38;;;;;;;4.55;3.80;;;;;;;8.54;62.68;100719.69;2071890;28;44574;-67
2022/04/24 00:02:40;;;;;;;5.18;3.88;;;;;;;8.52;62.18;100717.06;2071828;28;43140;-67
2022/04/24 00:03:42;;;;;;;4.38;3.88;;;;;;;8.50;62.12;100718.88;2071931;28;45889;-68
2022/04/24 00:04:45;;;;;;;5.40;3.78;;;;;;;8.48;62.35;100711.81;2071028;28;44777;-66
2022/04/24 00:05:47;;;;;;;5.05;3.80;;;;;;;8.41;62.56;100719.88;2071032;28;45268;-67
2022/04/24 00:06:51;;;;;;;5.28;3.85;;;;;;;8.36;62.79;100712.88;2071281;28;44769;-67
2022/04/24 00:07:52;;;;;;;4.03;3.63;;;;;;;8.36;62.86;100724.44;2072062;28;42904;-68
2022/04/24 00:08:56;;;;;;;4.05;3.45;;;;;;;8.32;62.69;100717.38;2072184;28;20030;-68
2022/04/24 00:09:58;;;;;;;4.82;3.65;;;;;;;8.30;62.89;100715.66;2071783;28;46325;-68
2022/04/24 00:11:00;;;;;;;4.97;3.72;;;;;;;8.29;63.59;100720.13;2071800;28;43288;-68
2022/04/24 00:12:02;;;;;;;4.13;3.72;;;;;;;8.27;63.21;100713.03;2071495;28;45675;-68
2022/04/24 00:13:04;;;;;;;4.15;3.65;;;;;;;8.27;63.18;100713.91;2072570;28;20042;-68
2022/04/24 00:14:09;;;;;;;4.13;3.72;;;;;;;8.22;63.66;100718.47;2072034;28;40918;-68
2022/04/24 00:15:11;;;;;;;4.95;4.00;;;;;;;8.20;63.94;100721.16;2071201;28;33873;-68
2022/04/24 00:16:14;;;;;;;6.47;3.72;;;;;;;8.16;63.95;100718.53;2084209;28;21152;-68
2022/04/24 00:17:16;;;;;;;5.28;3.97;;;;;;;8.16;63.52;100726.53;2087302;28;45891;-67
2022/04/24 00:18:18;;;;;;;4.40;4.00;;;;;;;8.14;63.35;100721.22;2087576;28;44750;-67
2022/04/24 00:19:22;;;;;;;6.28;4.32;;;;;;;8.12;63.91;100724.84;2087934;28;44551;-68
2022/04/24 00:20:24;;;;;;;5.80;4.10;;;;;;;8.09;63.79;100715.09;2087877;28;33833;-68
2022/04/24 00:21:26;;;;;;;5.43;4.32;;;;;;;8.08;63.65;100713.34;2087491;28;44441;-67
2022/04/24 00:22:30;;;;;;;4.78;4.22;;;;;;;8.07;63.94;100716.03;2087683;28;45220;-68
2022/04/24 00:23:32;;;;;;;7.82;3.90;;;;;;;8.05;64.14;100707.19;2087640;28;44826;-68
2022/04/24 00:24:34;;;;;;;5.13;4.28;;;;;;;8.00;63.89;100709.91;2088021;28;44114;-68
2022/04/24 00:25:36;;;;;;;4.43;4.03;;;;;;;8.01;63.87;100715.22;2088179;28;34989;-68
2022/04/24 00:26:38;;;;;;;4.68;4.18;;;;;;;7.95;64.60;100712.66;2088657;28;26216;-67
2022/04/24 00:27:40;;;;;;;4.60;3.97;;;;;;;7.96;63.83;100713.53;2095732;28;43405;-68
2022/04/24 00:28:42;;;;;;;6.35;4.05;;;;;;;7.94;64.47;100718.88;2096381;28;20045;-68
2022/04/24 00:29:44;;;;;;;5.07;4.22;;;;;;;7.97;64.20;100715.31;2088081;28;45115;-68
2022/04/24 00:30:45;;;;;;;5.75;4.15;;;;;;;7.97;64.21;100715.31;2088362;28;32309;-68
2022/04/24 00:31:47;;;;;;;8.00;4.40;;;;;;;7.93;63.97;100714.47;2087155;28;45623;-68
2022/04/24 00:32:49;;;;;;;5.43;4.13;;;;;;;7.91;64.38;100712.72;2087421;28;43999;-68
2022/04/24 00:33:50;;;;;;;6.15;4.30;;;;;;;7.87;64.30;100709.22;2095597;28;44318;-68
2022/04/24 00:34:52;;;;;;;6.53;4.57;;;;;;;7.90;63.79;100708.31;2096139;28;29763;-68
2022/04/24 00:35:54;;;;;;;4.80;4.30;;;;;;;7.86;64.41;100712.81;2087590;28;44099;-68
2022/04/24 00:36:55;;;;;;;4.88;4.43;;;;;;;7.84;64.32;100710.16;2088060;28;45840;-68
2022/04/24 00:37:59;;;;;;;5.10;4.45;;;;;;;7.79;64.82;100706.69;2096160;28;20072;-68
2022/04/24 00:39:01;;;;;;;5.63;4.53;;;;;;;7.79;64.85;100711.16;2082852;28;44214;-67
2022/04/24 00:40:04;;;;;;;4.85;4.28;;;;;;;7.75;64.54;100697.00;2079284;28;42933;-68
2022/04/24 00:41:05;;;;;;;7.20;4.60;;;;;;;7.73;64.81;100712.09;2071542;28;45571;-68
2022/04/24 00:42:09;;;;;;;5.15;4.28;;;;;;;7.73;64.55;100701.44;2071247;28;45845;-68
2022/04/24 00:43:11;;;;;;;5.88;4.50;;;;;;;7.71;64.81;100702.38;2079646;28;28692;-67
2022/04/24 00:44:32;;;;;;;5.68;4.32;;;;;;;7.63;64.74;100702.50;2077180;28;20082;-68
2022/04/24 00:46:14;;;;;;;5.85;4.38;;;;;;;7.61;65.22;100705.19;2071612;28;20080;-68
2022/04/24 00:47:21;;;;;;;4.32;3.83;;;;;;;7.58;64.63;100702.56;2072457;28;40445;-68
2022/04/24 00:48:23;;;;;;;5.78;4.40;;;;;;;7.61;64.77;100701.66;2076733;28;45491;-68
2022/04/24 00:49:44;;;;;;;5.78;4.30;;;;;;;7.56;65.00;100698.16;2071989;28;43461;-68
2022/04/24 00:50:47;;;;;;;7.03;4.38;;;;;;;7.55;64.96;100702.59;2079324;28;44251;-68
2022/04/24 00:51:49;;;;;;;4.70;4.20;;;;;;;7.52;65.17;100696.44;2070754;28;43502;-68
2022/04/24 00:52:51;;;;;;;12.55;4.10;;;;;;;7.53;65.38;100693.75;2071193;28;43110;-68
2022/04/24 00:53:54;;;;;;;7.05;3.92;;;;;;;7.49;65.20;100691.16;2078531;28;44949;-68
2022/04/24 00:54:56;;;;;;;4.35;3.95;;;;;;;7.47;65.57;100688.53;2078639;28;44182;-68
2022/04/24 00:55:57;;;;;;;7.28;4.20;;;;;;;7.48;64.87;100687.59;2071637;28;38994;-68
2022/04/24 00:57:02;;;;;;;5.55;4.10;;;;;;;7.48;65.05;100687.59;2078908;28;45706;-68
2022/04/24 00:58:04;;;;;;;5.22;4.35;;;;;;;7.48;65.01;100686.72;2078999;28;20108;-68
2022/04/24 00:59:09;;;;;;;4.35;3.95;;;;;;;7.47;65.21;100687.66;2078769;28;45650;-68
2022/04/24 01:00:11;;;;;;;4.47;4.00;;;;;;;7.47;64.97;100691.19;2070795;28;43198;-68
2022/04/24 01:01:13;;;;;;;5.13;4.47;;;;;;;7.45;65.09;100688.53;2070760;28;33265;-68
2022/04/24 01:02:14;;;;;;;5.50;3.70;;;;;;;7.42;65.24;100690.34;2070414;28;44896;-68
2022/04/24 01:03:16;;;;;;;4.35;3.83;;;;;;;7.40;65.15;100684.19;2071072;28;45629;-68
2022/04/24 01:04:19;;;;;;;4.45;3.97;;;;;;;7.40;65.05;100692.16;2079120;28;29123;-68
2022/04/24 01:05:21;;;;;;;5.20;3.60;;;;;;;7.38;65.11;100681.53;2070993;28;43235;-68
2022/04/24 01:06:22;;;;;;;6.28;4.03;;;;;;;7.37;65.46;100682.41;2062971;28;45479;-68
2022/04/24 01:07:24;;;;;;;5.30;4.10;;;;;;;7.37;65.00;100685.09;2062802;28;38121;-68
2022/04/24 01:08:26;;;;;;;4.72;3.90;;;;;;;7.36;65.41;100679.81;2070782;28;44123;-68
2022/04/24 01:09:27;;;;;;;6.15;4.07;;;;;;;7.38;65.21;100678.00;2085897;28;46589;-68
2022/04/24 01:10:40;;;;;;;5.57;3.80;;;;;;;7.35;65.32;100675.38;2070580;28;44342;-68
2022/04/24 01:11:46;;;;;;;4.78;3.92;;;;;;;7.35;65.04;100678.91;2070855;28;45336;-67
2022/04/24 01:12:48;;;;;;;7.53;4.43;;;;;;;7.36;65.10;100679.81;2070917;28;37910;-68
2022/04/24 01:13:49;;;;;;;4.80;4.30;;;;;;;7.34;65.29;100682.50;2070752;28;44100;-68
2022/04/24 01:14:51;;;;;;;4.28;3.97;;;;;;;7.33;65.08;100679.84;2070855;28;46312;-68
2022/04/24 01:15:57;;;;;;;5.22;4.32;;;;;;;7.31;65.27;100681.66;2071621;28;44419;-68
2022/04/24 01:17:01;;;;;;;5.30;4.20;;;;;;;7.28;65.65;100679.03;2070206;28;42831;-68
2022/04/24 01:18:03;;;;;;;6.97;3.88;;;;;;;7.24;65.47;100684.38;2070517;28;43705;-68
2022/04/24 01:19:06;;;;;;;6.65;4.68;;;;;;;7.26;65.61;100669.25;2070759;28;41929;-68
2022/04/24 01:20:08;;;;;;;6.05;4.13;;;;;;;7.24;65.41;100676.38;2070538;28;45461;-68
2022/04/24 01:21:10;;;;;;;4.78;4.38;;;;;;;7.20;65.89;100677.34;2071279;28;46161;-68
2022/04/24 01:22:12;;;;;;;6.07;4.82;;;;;;;7.16;65.90;100674.72;2071027;28;44279;-68
2022/04/24 01:23:14;;;;;;;8.80;5.30;;;;;;;7.16;66.14;100677.38;2071145;28;28958;-67
2022/04/24 01:24:22;;;;;;;5.72;4.40;;;;;;;7.13;65.70;100678.31;2070592;28;41948;-68
2022/04/24 01:25:24;;;;;;;5.22;4.40;;;;;;;7.15;66.23;100675.66;2069855;28;45367;-68
2022/04/24 01:26:26;;;;;;;4.72;4.13;;;;;;;7.10;66.27;100688.13;2071383;28;40108;-68
2022/04/24 01:27:27;;;;;;;5.28;4.65;;;;;;;7.10;66.40;100686.34;2070388;28;45454;-68
2022/04/24 01:28:29;;;;;;;6.97;4.78;;;;;;;7.08;66.43;100681.03;2071148;28;20088;-68
2022/04/24 01:29:33;;;;;;;5.60;4.78;;;;;;;7.06;66.06;100687.28;2078552;28;41949;-68
2022/04/24 01:30:36;;;;;;;7.25;5.05;;;;;;;7.07;66.40;100694.38;2078256;28;45658;-68
2022/04/24 01:31:41;;;;;;;5.93;4.47;;;;;;;7.06;66.13;100687.28;2071976;28;20042;-68
2022/04/24 01:32:43;;;;;;;5.38;4.50;;;;;;;7.03;66.52;100684.66;2071515;28;44208;-68
2022/04/24 01:33:45;;;;;;;5.82;5.10;;;;;;;7.01;66.19;100689.13;2071063;28;46391;-69
2022/04/24 01:34:47;;;;;;;5.25;4.53;;;;;;;6.99;66.83;100685.59;2072617;28;20042;-68
2022/04/24 01:35:48;;;;;;;5.32;4.82;;;;;;;6.95;67.33;100692.75;2070286;28;45219;-68
2022/04/24 01:36:50;;;;;;;5.32;4.80;;;;;;;6.93;67.37;100689.22;2070581;28;44469;-68
2022/04/24 01:37:55;;;;;;;5.43;4.93;;;;;;;6.92;67.10;100690.09;2071812;28;45528;-68
2022/04/24 01:38:57;;;;;;;5.70;4.90;;;;;;;6.94;67.35;100684.78;2070662;28;45708;-68
2022/04/24 01:39:59;;;;;;;5.32;4.82;;;;;;;6.90;66.79;100686.59;2071337;28;45753;-68
2022/04/24 01:41:01;;;;;;;8.43;5.03;;;;;;;6.87;66.92;100682.19;2078733;28;45175;-68
2022/04/24 01:42:03;;;;;;;8.02;5.25;;;;;;;6.87;67.78;100684.88;2078602;28;44016;-68
2022/04/24 01:43:05;;;;;;;8.50;4.97;;;;;;;6.86;66.97;100685.75;2071095;28;43595;-68
2022/04/24 01:44:08;;;;;;;7.30;5.10;;;;;;;6.88;67.58;100683.06;2071215;28;43310;-68
2022/04/24 01:45:09;;;;;;;6.47;4.93;;;;;;;6.85;67.23;100683.97;2070560;28;31542;-68
2022/04/24 01:46:11;;;;;;;8.43;5.28;;;;;;;6.84;67.38;100690.22;2070510;28;45293;-68
2022/04/24 01:47:13;;;;;;;8.55;5.20;;;;;;;6.82;67.68;100686.69;2070927;28;46774;-68
2022/04/24 01:48:14;;;;;;;8.15;5.25;;;;;;;6.79;68.02;100689.38;2078415;28;39099;-68
2022/04/24 01:49:16;;;;;;;7.15;4.93;;;;;;;6.80;68.12;100693.81;2078456;28;45633;-68
2022/04/24 01:50:20;;;;;;;5.70;5.05;;;;;;;6.80;68.11;100691.16;2071222;28;45937;-68
2022/04/24 01:51:22;;;;;;;5.30;4.68;;;;;;;6.78;68.52;100695.59;2070855;28;45668;-68
2022/04/24 01:52:24;;;;;;;8.65;5.05;;;;;;;6.76;67.48;100691.19;2071750;28;20154;-68
2022/04/24 01:53:29;;;;;;;7.97;5.47;;;;;;;6.73;68.16;100692.13;2071987;28;20046;-68
2022/04/24 01:54:31;;;;;;;6.80;4.78;;;;;;;6.75;67.68;100685.00;2071005;28;44447;-68
2022/04/24 01:55:32;;;;;;;6.70;5.22;;;;;;;6.72;68.61;100697.47;2071184;28;44278;-68
2022/04/24 01:56:34;;;;;;;5.72;5.20;;;;;;;6.68;69.20;100696.59;2070673;28;45257;-68
2022/04/24 01:57:36;;;;;;;7.53;4.80;;;;;;;6.67;68.91;100690.38;2071144;28;46495;-68
2022/04/24 01:58:40;;;;;;;5.85;5.22;;;;;;;6.66;68.39;100696.63;2079532;28;21028;-68
2022/04/24 01:59:42;;;;;;;6.63;4.82;;;;;;;6.67;69.04;100694.84;2077699;28;44095;-68
2022/04/24 02:00:44;;;;;;;9.85;5.35;;;;;;;6.63;68.87;100690.44;2062177;28;44975;-68
2022/04/24 02:01:50;;;;;;;7.65;5.22;;;;;;;6.62;69.12;100694.91;2070241;28;43289;-68
2022/04/24 02:02:52;;;;;;;8.57;5.40;;;;;;;6.60;69.54;100683.38;2070787;28;45816;-68
2022/04/24 02:03:54;;;;;;;6.35;5.03;;;;;;;6.59;69.60;100686.94;2078654;28;44632;-68
2022/04/24 02:04:56;;;;;;;5.78;5.10;;;;;;;6.56;69.05;100686.97;2078520;28;45725;-68
2022/04/24 02:05:58;;;;;;;6.38;5.63;;;;;;;6.55;70.03;100684.31;2078731;28;44946;-68
2022/04/24 02:06:59;;;;;;;5.85;5.10;;;;;;;6.53;68.77;100688.78;2079071;28;20046;-68
2022/04/24 02:08:01;;;;;;;6.80;5.10;;;;;;;6.55;69.14;100693.19;2070639;28;45383;-68
2022/04/24 02:09:03;;;;;;;8.00;5.05;;;;;;;6.53;69.83;100688.78;2070997;28;45649;-68
2022/04/24 02:10:05;;;;;;;7.57;5.25;;;;;;;6.58;69.94;100692.28;2069758;28;43824;-68
2022/04/24 02:11:08;;;;;;;7.63;5.30;;;;;;;6.58;69.54;100682.50;2062475;28;43848;-68
2022/04/24 02:12:10;;;;;;;8.90;5.53;;;;;;;6.55;69.89;100693.19;2070007;28;44803;-68
2022/04/24 02:13:12;;;;;;;7.38;5.13;;;;;;;6.54;69.64;100690.56;2070340;28;45660;-68
2022/04/24 02:14:14;;;;;;;6.07;5.22;;;;;;;6.49;70.27;100687.94;2071366;28;33025;-68
2022/04/24 02:15:19;;;;;;;6.35;5.20;;;;;;;6.47;70.11;100687.94;2070841;28;44545;-68
2022/04/24 02:16:20;;;;;;;5.85;5.25;;;;;;;6.48;70.41;100692.38;2078565;28;46380;-68
2022/04/24 02:17:22;;;;;;;6.97;5.07;;;;;;;6.46;70.15;100691.50;2078054;28;45547;-68
2022/04/24 02:18:24;;;;;;;7.65;5.10;;;;;;;6.44;70.15;100693.31;2070417;28;45132;-68
2022/04/24 02:19:26;;;;;;;8.38;5.70;;;;;;;6.43;70.19;100702.16;2078511;28;45810;-68
2022/04/24 02:20:29;;;;;;;6.90;5.47;;;;;;;6.44;70.59;100695.06;2078430;28;43327;-67
2022/04/24 02:21:31;;;;;;;8.10;5.68;;;;;;;6.42;71.03;100705.72;2079355;28;20137;-68
2022/04/24 02:22:34;;;;;;;6.80;5.63;;;;;;;6.39;70.43;100694.22;2078236;28;44313;-68
2022/04/24 02:23:35;;;;;;;7.30;5.20;;;;;;;6.38;71.13;100701.34;2070564;28;45110;-68
2022/04/24 02:24:37;;;;;;;7.30;5.18;;;;;;;6.38;70.58;100697.81;2070286;28;46602;-68
2022/04/24 02:25:39;;;;;;;7.57;5.60;;;;;;;6.37;71.56;100699.59;2078504;28;44733;-68
2022/04/24 02:26:41;;;;;;;9.07;5.82;;;;;;;6.35;70.57;100693.38;2070511;28;45278;-68
2022/04/24 02:27:42;;;;;;;8.50;5.18;;;;;;;6.32;70.74;100690.78;2070568;28;44730;-68
2022/04/24 02:28:44;;;;;;;7.57;5.30;;;;;;;6.31;70.73;100691.66;2070281;28;43516;-68
2022/04/24 02:29:46;;;;;;;7.45;5.20;;;;;;;6.30;70.92;100695.22;2062201;28;43833;-68
2022/04/24 02:30:48;;;;;;;6.07;5.35;;;;;;;6.29;70.98;100688.13;2070457;28;44280;-68
2022/04/24 02:31:50;;;;;;;7.10;5.28;;;;;;;6.28;71.00;100691.66;2078395;28;45695;-68
2022/04/24 02:32:52;;;;;;;7.00;5.63;;;;;;;6.30;71.69;100700.53;2078439;28;43480;-68
2022/04/24 02:33:54;;;;;;;7.68;5.60;;;;;;;6.26;71.03;100689.06;2078192;28;45159;-68
2022/04/24 02:34:56;;;;;;;6.60;5.22;;;;;;;6.25;71.13;100697.03;2078789;28;32292;-68
2022/04/24 02:35:57;;;;;;;6.25;5.65;;;;;;;6.24;71.26;100697.91;2070929;28;42187;-68
2022/04/24 02:36:59;;;;;;;9.48;5.10;;;;;;;6.23;71.45;100694.38;2070288;28;45627;-68
2022/04/24 02:38:00;;;;;;;8.20;5.45;;;;;;;6.25;70.90;100686.41;2070918;28;46029;-68
2022/04/24 02:39:02;;;;;;;7.45;5.63;;;;;;;6.20;72.28;100685.56;2070409;28;41316;-68
2022/04/24 02:40:09;;;;;;;8.10;5.47;;;;;;;6.19;72.18;100681.13;2070436;28;43985;-67
2022/04/24 02:41:13;;;;;;;7.00;4.93;;;;;;;6.19;71.34;100679.38;2069928;28;43064;-68
2022/04/24 02:42:15;;;;;;;5.90;5.15;;;;;;;6.19;71.67;100682.03;2069578;28;45235;-67
2022/04/24 02:43:17;;;;;;;7.45;5.55;;;;;;;6.16;71.71;100682.03;2070506;28;44320;-68
2022/04/24 02:44:18;;;;;;;6.25;5.65;;;;;;;6.17;72.51;100685.56;2070669;28;44209;-68
2022/04/24 02:45:20;;;;;;;7.07;5.20;;;;;;;6.17;72.14;100696.22;2070463;28;44006;-68
2022/04/24 02:46:22;;;;;;;7.93;5.15;;;;;;;6.18;71.87;100693.53;2071232;28;43890;-68
2022/04/24 02:47:24;;;;;;;6.70;5.55;;;;;;;6.16;72.71;100687.38;2070534;28;45126;-68
2022/04/24 02:48:27;;;;;;;7.57;5.57;;;;;;;6.18;72.32;100682.03;2070480;28;45118;-68
2022/04/24 02:49:29;;;;;;;8.23;5.43;;;;;;;6.16;72.25;100683.84;2070601;28;42856;-68
2022/04/24 02:50:31;;;;;;;7.72;5.57;;;;;;;6.15;72.45;100687.38;2070513;28;44010;-68
2022/04/24 02:51:32;;;;;;;6.63;5.50;;;;;;;6.14;71.83;100691.81;2070634;28;36155;-68
2022/04/24 02:52:46;;;;;;;7.82;5.60;;;;;;;6.14;72.09;100683.84;2070592;28;39553;-68
2022/04/24 02:53:48;;;;;;;5.75;5.20;;;;;;;6.13;71.79;100683.84;2070692;28;44451;-68
2022/04/24 02:54:53;;;;;;;8.00;5.40;;;;;;;6.11;72.40;100678.53;2070576;28;39708;-68
2022/04/24 02:56:00;;;;;;;7.45;5.03;;;;;;;6.12;72.57;100685.63;2070272;28;45479;-68
2022/04/24 02:57:02;;;;;;;6.68;5.28;;;;;;;6.11;72.84;100682.06;2078450;28;41267;-68
2022/04/24 02:58:04;;;;;;;8.02;5.65;;;;;;;6.09;72.56;100681.22;2078485;28;31302;-68
2022/04/24 02:59:06;;;;;;;6.70;5.53;;;;;;;6.08;72.04;100679.47;2070753;28;44796;-68
2022/04/24 03:00:09;;;;;;;9.98;6.45;;;;;;;6.10;72.64;100680.34;2070598;28;42903;-68
2022/04/24 03:01:11;;;;;;;7.97;5.70;;;;;;;6.09;72.48;100685.66;2070720;28;39658;-68
2022/04/24 03:02:13;;;;;;;9.10;5.80;;;;;;;6.08;72.36;100678.56;2077838;28;44985;-68
2022/04/24 03:03:18;;;;;;;6.22;5.25;;;;;;;6.05;72.28;100678.63;2077894;28;45389;-68
2022/04/24 03:04:21;;;;;;;8.45;5.78;;;;;;;6.06;72.59;100681.22;2070469;28;45210;-68
2022/04/24 03:05:24;;;;;;;8.02;5.40;;;;;;;6.06;72.38;100681.22;2070813;28;42684;-68
2022/04/24 03:06:25;;;;;;;9.75;5.28;;;;;;;6.04;72.54;100677.72;2078763;28;40660;-67
2022/04/24 03:07:29;;;;;;;7.10;5.05;;;;;;;6.06;72.52;100675.03;2078268;28;20041;-68
2022/04/24 03:08:32;;;;;;;6.30;5.15;;;;;;;6.04;73.05;100671.53;2071039;28;30842;-67
2022/04/24 03:09:36;;;;;;;6.80;5.43;;;;;;;6.05;72.49;100673.28;2071665;28;20635;-68
2022/04/24 03:10:39;;;;;;;6.85;5.60;;;;;;;6.05;72.24;100671.50;2070464;28;44818;-68
2022/04/24 03:11:41;;;;;;;9.25;5.78;;;;;;;6.06;72.32;100680.34;2070537;28;45448;-68
2022/04/24 03:12:44;;;;;;;7.70;5.82;;;;;;;6.02;73.20;100668.88;2071119;28;46669;-68
2022/04/24 03:13:46;;;;;;;6.10;5.05;;;;;;;6.05;72.94;100667.97;2079495;28;43690;-68
2022/04/24 03:14:49;;;;;;;6.20;5.22;;;;;;;6.04;72.94;100676.84;2079660;28;20045;-68
2022/04/24 03:15:51;;;;;;;6.70;5.53;;;;;;;6.05;73.43;100684.81;2071928;28;44662;-68
2022/04/24 03:16:53;;;;;;;7.00;5.47;;;;;;;6.03;73.70;100670.66;2079519;28;43887;-68
2022/04/24 03:17:55;;;;;;;6.22;5.28;;;;;;;6.02;72.91;100671.53;2079243;28;46695;-68
2022/04/24 03:18:56;;;;;;;6.95;5.30;;;;;;;5.99;72.67;100674.19;2079472;28;43594;-68
2022/04/24 03:20:03;;;;;;;8.00;5.80;;;;;;;5.98;72.78;100676.91;2078919;28;44473;-68
2022/04/24 03:21:05;;;;;;;10.10;5.68;;;;;;;5.99;73.89;100671.53;2071950;28;45902;-68
2022/04/24 03:22:07;;;;;;;6.95;5.70;;;;;;;5.95;73.85;100664.47;2072421;28;34639;-67
2022/04/24 03:23:08;;;;;;;10.65;5.35;;;;;;;5.97;73.51;100664.50;2079249;28;45505;-68
2022/04/24 03:24:10;;;;;;;9.85;5.97;;;;;;;5.95;73.32;100664.47;2079734;28;44217;-68
2022/04/24 03:25:12;;;;;;;6.88;5.47;;;;;;;5.95;73.28;100667.13;2080697;28;35739;-68
2022/04/24 03:26:13;;;;;;;8.48;5.43;;;;;;;5.94;73.44;100673.34;2080526;28;45817;-68
2022/04/24 03:27:15;;;;;;;7.10;5.32;;;;;;;5.91;73.40;100668.06;2079919;28;43946;-68
2022/04/24 03:28:20;;;;;;;6.85;5.75;;;;;;;5.93;73.84;100668.91;2080226;28;46395;-68
2022/04/24 03:29:21;;;;;;;7.72;5.28;;;;;;;5.92;74.60;100667.16;2080174;28;44303;-68
2022/04/24 03:30:23;;;;;;;9.02;5.55;;;;;;;5.92;74.63;100667.16;2080384;28;42759;-68
2022/04/24 03:31:25;;;;;;;7.18;5.60;;;;;;;5.94;74.47;100662.72;2079853;28;45279;-68
2022/04/24 03:32:33;;;;;;;8.27;5.57;;;;;;;5.95;74.15;100672.44;2080227;28;43264;-68
2022/04/24 03:33:35;;;;;;;10.00;5.45;;;;;;;5.93;73.64;100671.56;2080215;28;44741;-68
2022/04/24 03:34:37;;;;;;;6.85;5.43;;;;;;;5.94;73.48;100673.34;2080345;28;45806;-68
2022/04/24 03:35:39;;;;;;;7.40;5.15;;;;;;;5.94;74.33;100673.34;2079987;28;44027;-69
2022/04/24 03:36:40;;;;;;;8.60;4.93;;;;;;;5.96;73.76;100673.34;2079875;28;44809;-69
2022/04/24 03:37:43;;;;;;;10.45;5.60;;;;;;;5.97;74.70;100668.03;2080336;28;43300;-68
2022/04/24 03:38:45;;;;;;;8.48;5.32;;;;;;;5.97;74.16;100668.03;2080406;28;32564;-68
2022/04/24 03:39:46;;;;;;;10.25;5.60;;;;;;;6.02;74.38;100668.00;2080242;28;44392;-68
2022/04/24 03:40:48;;;;;;;8.02;5.43;;;;;;;6.02;74.35;100671.53;2079667;28;43944;-68
2022/04/24 03:41:49;;;;;;;8.57;4.90;;;;;;;6.03;74.36;100669.75;2079834;28;43997;-68
2022/04/24 03:42:51;;;;;;;7.28;5.30;;;;;;;6.04;73.61;100664.41;2080889;28;23365;-68
2022/04/24 03:43:53;;;;;;;8.95;5.40;;;;;;;6.03;74.51;100665.34;2080010;28;44022;-68
2022/04/24 03:44:56;;;;;;;6.53;4.93;;;;;;;6.03;74.22;100657.34;2080234;28;44828;-68
2022/04/24 03:45:58;;;;;;;7.70;4.88;;;;;;;6.04;73.95;100667.06;2087603;28;45271;-68
2022/04/24 03:47:00;;;;;;;7.45;5.10;;;;;;;6.03;73.69;100669.75;2088098;28;20908;-68
2022/04/24 03:48:01;;;;;;;8.13;5.00;;;;;;;6.02;75.06;100655.59;2080123;28;42181;-68
2022/04/24 03:49:03;;;;;;;7.35;5.28;;;;;;;6.03;74.13;100662.69;2087360;28;45805;-68
2022/04/24 03:50:06;;;;;;;9.38;5.55;;;;;;;6.08;74.88;100662.63;2087225;28;46908;-68
2022/04/24 03:51:08;;;;;;;9.18;5.05;;;;;;;6.07;73.72;100664.41;2080590;28;45602;-68
2022/04/24 03:52:12;;;;;;;6.07;4.68;;;;;;;6.11;74.39;100671.44;2079969;28;33673;-68
2022/04/24 03:53:14;;;;;;;10.07;4.97;;;;;;;6.09;74.47;100667.91;2080199;28;45577;-68
2022/04/24 03:54:16;;;;;;;10.48;4.85;;;;;;;6.10;73.82;100666.13;2079979;28;44026;-68
2022/04/24 03:55:18;;;;;;;5.50;4.40;;;;;;;6.10;74.09;100659.06;2079838;28;46669;-68
2022/04/24 03:56:19;;;;;;;7.45;5.10;;;;;;;6.10;74.28;100660.81;2079445;28;42101;-68
2022/04/24 03:57:21;;;;;;;6.25;4.95;;;;;;;6.11;74.26;100660.81;2079343;28;42912;-68
2022/04/24 03:58:23;;;;;;;7.38;5.03;;;;;;;6.09;74.07;100659.94;2079899;28;45958;-68
2022/04/24 03:59:24;;;;;;;6.72;5.07;;;;;;;6.07;75.17;100661.75;2079995;28;43738;-68
2022/04/24 04:00:26;;;;;;;7.43;5.00;;;;;;;6.07;74.48;100667.06;2080550;28;34539;-68
2022/04/24 04:01:27;;;;;;;9.48;5.15;;;;;;;6.07;75.21;100661.75;2079860;28;42001;-68
2022/04/24 04:02:29;;;;;;;7.60;5.25;;;;;;;6.05;74.37;100663.53;2079492;28;45499;-68
2022/04/24 04:03:31;;;;;;;6.88;4.90;;;;;;;6.03;75.78;100660.03;2080184;28;45968;-68
2022/04/24 04:04:33;;;;;;;8.98;5.45;;;;;;;6.00;74.68;100662.69;2080456;28;32587;-68
2022/04/24 04:05:38;;;;;;;6.25;4.97;;;;;;;6.01;75.35;100666.22;2079323;28;45145;-68
2022/04/24 04:06:39;;;;;;;6.80;5.40;;;;;;;5.99;75.60;100658.25;2078576;28;44148;-68
2022/04/24 04:07:41;;;;;;;6.60;5.40;;;;;;;5.97;75.70;100662.72;2078919;28;38025;-68
2022/04/24 04:08:45;;;;;;;6.45;5.03;;;;;;;5.98;75.30;100663.63;2079830;28;44318;-68
2022/04/24 04:09:47;;;;;;;9.25;5.28;;;;;;;5.96;75.76;100668.03;2079895;28;42891;-68
2022/04/24 04:10:48;;;;;;;10.13;5.75;;;;;;;5.95;75.54;100672.44;2079509;28;46506;-66
2022/04/24 04:11:53;;;;;;;6.60;5.68;;;;;;;5.92;75.30;100661.81;2080620;28;20930;-68
2022/04/24 04:12:55;;;;;;;8.98;5.55;;;;;;;5.91;76.61;100660.97;2079844;28;44277;-67
2022/04/24 04:13:57;;;;;;;8.18;5.55;;;;;;;5.89;75.45;100662.75;2079445;28;46477;-68
2022/04/24 04:15:04;;;;;;;6.20;5.07;;;;;;;5.88;75.72;100663.63;2080312;28;44208;-68
2022/04/24 04:16:05;;;;;;;8.38;5.13;;;;;;;5.89;76.41;100672.50;2080225;28;36834;-68
2022/04/24 04:17:09;;;;;;;7.72;5.20;;;;;;;5.90;76.65;100660.97;2079738;28;45724;-68
2022/04/24 04:18:12;;;;;;;6.18;4.97;;;;;;;5.88;76.86;100666.28;2079467;28;45723;-68
2022/04/24 04:19:19;;;;;;;7.28;5.50;;;;;;;5.88;76.79;100671.59;2079777;28;46322;-68
2022/04/24 04:20:20;;;;;;;8.13;5.55;;;;;;;5.87;76.79;100669.84;2079037;28;44770;-68
2022/04/24 04:21:22;;;;;;;7.78;5.32;;;;;;;5.88;76.97;100670.72;2078988;28;45781;-68
2022/04/24 04:22:24;;;;;;;6.78;5.35;;;;;;;5.87;76.11;100663.66;2078031;28;46011;-68
2022/04/24 04:23:26;;;;;;;9.50;5.38;;;;;;;5.84;76.58;100669.00;2079739;28;39349;-68
2022/04/24 04:24:27;;;;;;;7.28;5.13;;;;;;;5.86;77.18;100662.75;2079332;28;44803;-68
2022/04/24 04:25:31;;;;;;;8.68;5.88;;;;;;;5.89;76.28;100667.19;2079793;28;20254;-68
2022/04/24 04:26:33;;;;;;;8.80;5.80;;;;;;;5.89;76.25;100667.19;2079461;28;45505;-68
2022/04/24 04:27:34;;;;;;;7.93;5.47;;;;;;;5.89;77.37;100662.75;2079290;28;44397;-68
2022/04/24 04:28:36;;;;;;;7.38;5.63;;;;;;;5.90;76.75;100663.63;2079224;28;44309;-68
2022/04/24 04:29:38;;;;;;;7.68;5.35;;;;;;;5.91;77.44;100668.06;2080004;28;39472;-68
2022/04/24 04:30:41;;;;;;;7.80;5.22;;;;;;;5.95;76.07;100667.13;2079670;28;43455;-68
2022/04/24 04:31:43;;;;;;;7.70;5.60;;;;;;;5.97;76.24;100668.03;2078829;28;43952;-68
2022/04/24 04:32:45;;;;;;;8.95;5.35;;;;;;;5.95;76.92;100667.13;2079026;28;45646;-68
2022/04/24 04:33:46;;;;;;;11.50;5.88;;;;;;;5.96;76.04;100662.72;2079893;28;45302;-68
2022/04/24 04:34:48;;;;;;;7.28;5.70;;;;;;;5.98;77.18;100666.28;2079402;28;43874;-68
2022/04/24 04:35:50;;;;;;;7.07;5.47;;;;;;;5.98;76.90;100667.16;2080132;28;44270;-68
2022/04/24 04:36:51;;;;;;;9.45;6.22;;;;;;;5.99;76.24;100671.53;2079651;28;45199;-68
2022/04/24 04:37:53;;;;;;;7.55;5.05;;;;;;;6.00;77.15;100677.75;2079312;28;44853;-68
2022/04/24 04:38:55;;;;;;;8.10;5.68;;;;;;;6.00;77.32;100669.78;2079840;28;45001;-68
2022/04/24 04:39:57;;;;;;;7.45;5.40;;;;;;;6.00;76.34;100665.34;2079810;28;45144;-68
2022/04/24 04:41:01;;;;;;;7.50;5.57;;;;;;;6.00;76.47;100665.34;2079068;28;45693;-68
2022/04/24 04:42:03;;;;;;;8.70;5.68;;;;;;;6.03;76.67;100673.31;2080438;28;20072;-68
2022/04/24 04:43:05;;;;;;;8.80;5.55;;;;;;;6.07;76.56;100669.72;2079734;28;44216;-68
2022/04/24 04:44:07;;;;;;;9.07;5.32;;;;;;;6.09;76.15;100677.69;2079750;28;44816;-68
2022/04/24 04:45:09;;;;;;;7.22;5.38;;;;;;;6.10;75.92;100668.78;2079571;28;45679;-68
2022/04/24 04:46:11;;;;;;;7.18;5.40;;;;;;;6.11;76.35;100675.88;2079723;28;44663;-68
2022/04/24 04:47:12;;;;;;;8.40;4.90;;;;;;;6.14;75.96;100674.97;2080246;28;39183;-68
2022/04/24 04:48:16;;;;;;;7.80;5.30;;;;;;;6.18;76.09;100679.38;2104907;22;20037;-64
2022/04/24 04:49:17;;;;;;;9.40;5.38;;;;;;;6.20;75.95;100677.59;2073290;28;22813;-64
2022/04/24 04:50:19;;;;;;;9.30;5.28;;;;;;;6.20;76.03;100681.13;2063100;28;45626;-65
2022/04/24 04:51:21;;;;;;;9.77;5.40;;;;;;;6.23;75.86;100681.09;2063312;28;44473;-66
2022/04/24 04:52:26;;;;;;;7.45;5.00;;;;;;;6.26;75.49;100678.41;2062772;28;42974;-64
2022/04/24 04:53:31;;;;;;;8.82;5.85;;;;;;;6.29;75.49;100686.34;2063297;28;46180;-66
2022/04/24 04:54:32;;;;;;;6.72;4.85;;;;;;;6.32;75.75;100685.44;2063206;28;43158;-65
2022/04/24 04:55:34;;;;;;;8.40;5.53;;;;;;;6.35;75.44;100681.88;2063314;28;45450;-66